createdAt,value
2023-01-30T00:00:26.952Z,-4.92
2023-01-30T00:04:28.927Z,-4.90
2023-01-30T00:08:14.216Z,-4.92
2023-01-30T00:12:25.508Z,-4.91
2023-01-30T00:16:34.793Z,-4.93
2023-01-30T00:20:22.681Z,-4.93
2023-01-30T00:24:12.867Z,-4.94
2023-01-30T00:28:47.463Z,-4.94
2023-01-30T00:32:54.733Z,-4.97
2023-01-30T00:45:32.165Z,-5.01
2023-01-30T00:49:39.413Z,-5.04
2023-01-30T00:53:43.389Z,-5.04
2023-01-30T00:57:50.313Z,-5.05
2023-01-30T01:01:59.975Z,-5.08
2023-01-30T01:06:12.582Z,-5.06
2023-01-30T01:10:05.580Z,-5.08
2023-01-30T07:24:44.392Z,0.57
2023-01-30T07:28:25.419Z,0.28
2023-01-30T07:32:16.493Z,0.03
2023-01-30T07:36:10.433Z,0.45
2023-01-30T07:52:18.791Z,0.69
2023-01-30T09:26:01.459Z,2.39
2023-01-30T10:07:42.901Z,0.40
2023-01-30T10:20:10.042Z,0.79
2023-01-30T14:00:17.882Z,-1.63
2023-01-30T14:07:45.722Z,-1.79
2023-01-30T14:11:34.599Z,-1.84
2023-01-30T14:22:50.016Z,-2.15
2023-01-30T14:26:55.805Z,-2.22
2023-01-30T14:31:26.341Z,-2.42
2023-01-30T14:35:25.353Z,-2.59
2023-01-30T14:42:56.576Z,-2.83
2023-01-30T14:47:01.768Z,-2.90
2023-01-30T14:58:26.535Z,-3.23
2023-01-30T15:14:39.652Z,-3.42
2023-01-30T15:26:35.321Z,-3.34
2023-01-30T15:34:15.620Z,-3.41
2023-01-30T15:38:01.565Z,-3.52
2023-01-30T15:41:42.618Z,-3.56
2023-01-30T15:45:38.353Z,-3.57
2023-01-30T15:57:34.621Z,-3.81
2023-01-30T16:12:12.188Z,-4.14
2023-01-30T16:16:06.588Z,-4.26
2023-01-30T16:54:17.602Z,-4.82
2023-01-30T17:13:20.457Z,-4.79
2023-01-30T17:17:36.343Z,-4.80
2023-01-30T17:21:37.008Z,-4.76
2023-01-30T17:25:35.310Z,-4.68
2023-01-30T17:29:41.497Z,-4.59
2023-01-30T17:37:11.240Z,-4.48
2023-01-30T17:41:13.263Z,-4.39
2023-01-30T17:45:02.220Z,-4.29
2023-01-30T17:48:52.116Z,-4.17
2023-01-30T17:52:40.320Z,-4.13
2023-01-30T17:56:45.254Z,-4.07
2023-01-30T18:03:18.263Z,-3.96
2023-01-30T18:07:26.201Z,-3.89
2023-01-30T18:11:13.273Z,-3.84
2023-01-30T18:14:55.268Z,-3.82
2023-01-30T18:18:42.351Z,-3.79
2023-01-30T18:22:26.274Z,-3.74
2023-01-30T18:26:19.142Z,-3.73
2023-01-30T18:30:16.999Z,-3.69
2023-01-30T18:33:54.402Z,-3.65
2023-01-30T18:37:33.315Z,-3.62
2023-01-30T18:41:20.271Z,-3.56
2023-01-30T18:44:55.317Z,-3.52
2023-01-30T18:48:42.302Z,-3.49
2023-01-30T18:52:28.294Z,-3.45
2023-01-30T18:56:04.416Z,-3.43
2023-01-30T18:59:48.487Z,-3.41
2023-01-30T19:04:45.842Z,-3.39
2023-01-30T19:08:32.984Z,-3.38
2023-01-30T19:12:20.494Z,-3.38
2023-01-30T22:45:56.148Z,-4.05
2023-01-30T22:49:40.249Z,-4.03
2023-01-30T22:53:27.329Z,-4.00
2023-01-30T22:57:15.134Z,-3.97
2023-01-30T23:01:11.209Z,-3.95
2023-01-30T23:12:03.168Z,-3.91
2023-01-30T23:23:10.149Z,-3.87
2023-01-30T23:34:12.195Z,-3.87
2023-01-30T23:38:04.185Z,-3.87
2023-01-30T23:41:43.133Z,-3.87
2023-01-30T23:52:52.336Z,-3.88
2023-01-30T23:56:53.019Z,-3.85
